Terminal Aerodrome Forecast
Issued by NWS

Home | Current Version | Previous Version | Text Only | Print | Product List | Glossary On
Versions: 1 2 3 4 5 6 7 8 9 10 11 12 13 14 15 16 17 18 19
000
FTUS43 KMPX 062103 AAA
TAFRNH
TAF AMD
KRNH 062103Z 0621/0718 11012G19KT P6SM SCT015 OVC120
     FM062200 12013G20KT P6SM -SHRA SCT025 OVC050
      TEMPO 0622/0702 3SM -TSRA BKN025CB
     FM070400 14010KT P6SM BKN040
     FM071000 16012KT 4SM -RA BR SCT015 BKN025 PROB30 0712/0718 2SM
      TSRA SCT025 BKN040CB=

USA.gov is the U.S. government's official web portal to all federal, state and local government web resources and services.